Time;durP1;ratioP1;P1;durP2;ratioP2;P2;SDS_P1;SDS_P2;PMS_P1;PMS_P2;Temp;Humidity;BMP_temperature;BMP_pressure;BME280_temperature;BME280_humidity;BME280_pressure;Samples;Min_cycle;Max_cycle;Signal;HPM_P1;HPM_P2
2024/03/07 00:02:10;;;;;;;10.50;7.07;;;;;;;18.56;42.08;102448.97;5008071;28;20404;-71
2024/03/07 00:04:36;;;;;;;9.70;6.85;;;;;;;18.46;42.04;102441.56;5013608;28;21078;-71
2024/03/07 00:07:04;;;;;;;9.55;7.00;;;;;;;18.49;42.27;102443.19;5006367;28;20100;-71
2024/03/07 00:09:34;;;;;;;9.32;6.50;;;;;;;18.45;41.96;102441.66;5010488;28;20068;-71
2024/03/07 00:12:00;;;;;;;8.75;6.25;;;;;;;18.48;42.07;102441.47;5009255;28;20492;-71
2024/03/07 00:14:28;;;;;;;9.75;7.07;;;;;;;18.38;41.87;102430.59;5005629;28;20048;-71
2024/03/07 00:16:55;;;;;;;8.73;6.30;;;;;;;18.41;41.93;102440.13;5014936;28;20030;-71
2024/03/07 00:19:21;;;;;;;9.93;6.78;;;;;;;18.43;41.61;102451.44;5012361;28;20068;-72
2024/03/07 00:21:46;;;;;;;9.32;6.53;;;;;;;18.29;41.92;102429.34;5008321;28;20411;-71
2024/03/07 00:24:13;;;;;;;10.02;7.00;;;;;;;18.37;41.70;102442.09;5013748;28;20826;-71
2024/03/07 00:26:40;;;;;;;11.40;7.40;;;;;;;18.44;41.80;102456.66;5009488;28;20048;-72
2024/03/07 00:29:06;;;;;;;10.80;7.15;;;;;;;18.41;41.89;102451.53;5011315;28;20030;-72
2024/03/07 00:31:31;;;;;;;11.10;7.45;;;;;;;18.41;41.74;102453.34;5013442;28;20112;-71
2024/03/07 00:33:57;;;;;;;9.38;6.88;;;;;;;18.35;41.75;102443.13;5006148;28;20040;-71
2024/03/07 00:36:22;;;;;;;8.93;6.60;;;;;;;18.38;41.66;102449.06;5016354;28;20117;-71
2024/03/07 00:38:47;;;;;;;9.88;7.50;;;;;;;18.34;41.80;102444.94;5020825;28;20220;-72
2024/03/07 00:41:12;;;;;;;9.67;6.50;;;;;;;18.40;41.73;102449.00;5006513;28;20030;-72
2024/03/07 00:43:38;;;;;;;10.68;7.35;;;;;;;18.34;41.55;102442.28;5020093;28;20330;-71
2024/03/07 00:46:06;;;;;;;10.10;7.13;;;;;;;18.31;41.05;102442.47;5014482;28;20820;-72
2024/03/07 00:48:31;;;;;;;9.27;6.72;;;;;;;18.23;41.65;102423.53;5002729;28;20042;-71
2024/03/07 00:50:57;;;;;;;8.55;6.72;;;;;;;18.27;41.62;102433.00;5014999;28;20036;-71
2024/03/07 00:53:22;;;;;;;10.27;7.20;;;;;;;18.19;41.38;102422.88;5011694;28;20037;-72
2024/03/07 00:55:48;;;;;;;9.68;6.57;;;;;;;18.30;41.41;102440.75;5006691;28;20029;-72
2024/03/07 00:58:13;;;;;;;9.63;6.97;;;;;;;18.25;41.36;102433.09;5007921;28;20144;-72
2024/03/07 01:00:42;;;;;;;10.10;7.20;;;;;;;18.27;41.41;102433.84;5005692;28;20074;-72
2024/03/07 01:03:10;;;;;;;10.13;7.32;;;;;;;18.29;41.53;102433.75;5003369;28;20038;-72
2024/03/07 01:05:36;;;;;;;9.93;7.35;;;;;;;18.28;41.44;102440.00;5013123;28;20037;-72
2024/03/07 01:08:01;;;;;;;11.27;7.32;;;;;;;18.27;41.31;102430.38;5012251;28;20044;-71
2024/03/07 01:10:28;;;;;;;10.95;7.43;;;;;;;18.25;41.35;102427.81;5014382;28;20641;-72
2024/03/07 01:12:57;;;;;;;11.07;6.97;;;;;;;18.26;41.49;102426.88;5012735;28;20041;-72
2024/03/07 01:15:23;;;;;;;12.57;7.72;;;;;;;18.17;41.19;102411.56;5008800;28;20030;-70
2024/03/07 01:17:48;;;;;;;10.30;7.40;;;;;;;18.11;41.36;102409.28;5007894;28;20041;-72
2024/03/07 01:20:13;;;;;;;10.95;7.30;;;;;;;18.18;41.20;102418.53;5013339;28;20060;-72
2024/03/07 01:22:38;;;;;;;10.45;7.28;;;;;;;18.21;41.08;102422.78;5010005;28;20037;-72
2024/03/07 01:25:05;;;;;;;9.75;7.15;;;;;;;18.19;41.08;102414.13;5011805;28;20029;-72
2024/03/07 01:27:30;;;;;;;10.13;7.13;;;;;;;18.12;41.06;102403.06;5015149;28;20133;-71
2024/03/07 01:29:55;;;;;;;10.00;7.10;;;;;;;18.20;41.11;102419.31;5013551;28;20034;-72
2024/03/07 01:32:21;;;;;;;8.90;6.63;;;;;;;18.15;41.43;102408.19;5008926;28;20527;-72
2024/03/07 01:34:46;;;;;;;9.13;7.18;;;;;;;18.18;41.22;102415.88;5002097;28;20062;-71
2024/03/07 01:37:11;;;;;;;11.48;7.35;;;;;;;18.13;41.17;102399.47;5007295;28;20100;-72
2024/03/07 01:39:37;;;;;;;9.38;6.45;;;;;;;18.12;41.09;102405.72;5003491;28;20471;-72
2024/03/07 01:42:02;;;;;;;9.98;7.32;;;;;;;18.05;41.07;102391.97;5004902;28;20083;-71
2024/03/07 01:44:27;;;;;;;9.55;7.18;;;;;;;17.94;40.94;102374.16;5005238;28;20124;-72
2024/03/07 01:46:52;;;;;;;9.82;7.00;;;;;;;18.00;41.07;102387.94;5008519;28;20369;-72
2024/03/07 01:49:18;;;;;;;10.55;7.72;;;;;;;18.07;40.88;102398.06;5006521;28;20618;-71
2024/03/07 01:51:44;;;;;;;10.20;7.25;;;;;;;18.14;41.02;102406.47;5014493;28;20067;-71
2024/03/07 01:54:10;;;;;;;9.73;7.38;;;;;;;18.00;41.09;102385.28;5010423;28;20152;-72
2024/03/07 01:56:36;;;;;;;11.93;7.50;;;;;;;18.08;40.97;102394.44;5009960;28;20048;-72
2024/03/07 01:59:05;;;;;;;10.65;7.38;;;;;;;18.12;40.96;102406.53;5005083;28;20068;-71
2024/03/07 02:01:30;;;;;;;10.75;7.65;;;;;;;18.11;40.91;102401.34;5010310;28;20063;-71
2024/03/07 02:03:55;;;;;;;9.27;6.97;;;;;;;18.10;41.06;102400.50;5010298;28;20037;-72
2024/03/07 02:06:21;;;;;;;8.27;6.43;;;;;;;18.10;40.97;102397.88;5006392;28;20034;-71
2024/03/07 02:08:47;;;;;;;9.85;6.57;;;;;;;18.09;41.07;102395.31;5009367;28;20037;-72
2024/03/07 02:11:13;;;;;;;9.88;7.05;;;;;;;18.00;41.18;102383.50;5010571;28;20029;-72
2024/03/07 02:13:38;;;;;;;10.15;7.22;;;;;;;17.97;41.16;102374.91;5014270;28;20029;-72
2024/03/07 02:16:04;;;;;;;9.23;7.25;;;;;;;18.04;41.10;102389.44;5001174;28;20036;-72
2024/03/07 02:18:29;;;;;;;9.63;7.40;;;;;;;18.05;40.91;102386.72;4999902;28;20968;-72
2024/03/07 02:20:55;;;;;;;9.43;6.97;;;;;;;17.94;41.12;102365.38;4999239;28;20476;-72
2024/03/07 02:23:20;;;;;;;9.63;6.93;;;;;;;18.04;41.09;102387.66;5019153;28;20033;-72
2024/03/07 02:25:46;;;;;;;9.20;7.03;;;;;;;18.03;41.09;102380.69;5016037;28;20713;-72
2024/03/07 02:28:11;;;;;;;9.68;7.22;;;;;;;18.00;41.35;102366.81;5012847;28;20033;-72
2024/03/07 02:30:36;;;;;;;11.20;7.65;;;;;;;17.92;41.20;102356.69;5011314;28;20400;-72
2024/03/07 02:33:09;;;;;;;8.80;6.95;;;;;;;17.92;40.99;102359.34;5006421;28;20041;-71
2024/03/07 02:35:35;;;;;;;10.40;7.05;;;;;;;17.90;41.11;102358.59;5016237;28;20041;-72
2024/03/07 02:38:02;;;;;;;9.27;7.30;;;;;;;18.05;40.82;102380.59;5003480;28;20038;-71
2024/03/07 02:40:27;;;;;;;10.05;6.88;;;;;;;17.86;40.87;102347.31;5005049;28;20136;-72
2024/03/07 02:42:53;;;;;;;9.75;7.10;;;;;;;17.90;40.78;102359.41;5011533;28;20052;-72
2024/03/07 02:45:18;;;;;;;10.03;6.80;;;;;;;17.95;41.20;102361.81;5013320;28;20036;-72
2024/03/07 02:47:44;;;;;;;9.52;7.22;;;;;;;18.00;40.84;102369.47;5008426;28;20322;-72
2024/03/07 02:50:10;;;;;;;9.68;7.50;;;;;;;18.03;41.07;102380.69;5009390;28;20057;-71
2024/03/07 02:52:35;;;;;;;10.55;7.80;;;;;;;17.96;40.82;102360.88;5008878;28;20029;-72
2024/03/07 02:55:03;;;;;;;13.32;7.88;;;;;;;17.95;40.72;102359.16;5011755;28;20088;-71
2024/03/07 02:57:28;;;;;;;11.43;7.50;;;;;;;17.99;40.89;102367.75;5016220;28;20029;-71
2024/03/07 02:59:53;;;;;;;10.95;8.02;;;;;;;17.86;40.85;102341.19;5004601;28;20038;-72
2024/03/07 03:02:19;;;;;;;9.90;7.07;;;;;;;17.88;40.98;102352.53;4999148;28;20034;-72
2024/03/07 03:04:44;;;;;;;10.88;7.22;;;;;;;17.97;41.07;102369.63;5004228;28;20518;-72
2024/03/07 03:07:10;;;;;;;9.75;7.20;;;;;;;17.94;40.77;102363.59;5009697;28;20041;-71
2024/03/07 03:09:39;;;;;;;10.40;7.70;;;;;;;17.80;40.78;102337.13;5012773;28;20039;-71
2024/03/07 03:12:05;;;;;;;11.25;7.45;;;;;;;17.92;40.86;102357.53;5000463;28;20030;-71
2024/03/07 03:14:31;;;;;;;11.98;7.95;;;;;;;17.83;40.83;102341.34;5010266;28;20106;-71
2024/03/07 03:16:56;;;;;;;9.95;7.25;;;;;;;17.90;40.80;102350.66;5007520;28;20145;-71
2024/03/07 03:19:22;;;;;;;11.65;6.97;;;;;;;17.94;40.87;102365.38;5018878;28;20518;-71
2024/03/07 03:21:48;;;;;;;10.70;7.93;;;;;;;17.91;40.80;102357.63;5006582;28;20117;-72
2024/03/07 03:24:15;;;;;;;11.23;7.80;;;;;;;17.94;41.00;102357.44;5010560;28;20485;-71
2024/03/07 03:26:42;;;;;;;9.88;7.45;;;;;;;17.84;40.68;102332.53;5013123;28;20034;-71
2024/03/07 03:29:09;;;;;;;10.05;7.35;;;;;;;17.85;40.62;102342.97;5013065;28;20039;-71
2024/03/07 03:31:35;;;;;;;9.75;7.30;;;;;;;17.79;40.74;102324.88;5004256;28;20083;-71
2024/03/07 03:34:01;;;;;;;9.93;7.53;;;;;;;17.91;40.74;102347.06;5003810;28;20035;-72
2024/03/07 03:36:26;;;;;;;11.23;7.80;;;;;;;17.90;40.72;102345.41;5011520;28;20076;-71
2024/03/07 03:38:52;;;;;;;11.15;7.78;;;;;;;17.90;40.68;102348.03;5005754;28;20402;-71
2024/03/07 03:41:17;;;;;;;9.27;6.80;;;;;;;17.82;40.56;102332.59;5010898;28;20041;-71
2024/03/07 03:43:43;;;;;;;10.70;8.25;;;;;;;17.70;40.58;102309.56;5011033;28;20091;-71
2024/03/07 03:46:11;;;;;;;12.00;7.72;;;;;;;17.76;40.53;102320.59;5010367;28;20037;-72
2024/03/07 03:48:39;;;;;;;10.45;8.25;;;;;;;17.80;40.73;102331.84;5011393;28;20053;-72
2024/03/07 03:51:07;;;;;;;10.63;7.45;;;;;;;17.67;40.65;102307.09;5008334;28;20038;-71
2024/03/07 03:53:32;;;;;;;9.38;7.07;;;;;;;17.73;40.63;102322.56;5004841;28;20102;-72
2024/03/07 03:55:58;;;;;;;10.23;7.82;;;;;;;17.72;40.68;102324.38;5004109;28;20056;-72
2024/03/07 03:58:24;;;;;;;11.50;8.73;;;;;;;17.74;40.64;102327.75;5009241;28;20859;-71
2024/03/07 04:00:49;;;;;;;10.52;7.55;;;;;;;17.86;40.74;102343.81;5009407;28;20034;-72
2024/03/07 04:03:14;;;;;;;12.20;8.07;;;;;;;17.84;40.45;102335.16;5005880;28;20048;-71
2024/03/07 04:05:41;;;;;;;11.43;8.40;;;;;;;17.66;40.59;102302.78;5009026;28;20049;-71
2024/03/07 04:08:07;;;;;;;9.93;7.13;;;;;;;17.81;40.50;102332.69;5011636;28;20060;-72
2024/03/07 04:10:32;;;;;;;10.15;7.80;;;;;;;17.83;40.43;102330.81;5007587;28;20026;-72
2024/03/07 04:12:58;;;;;;;10.77;8.38;;;;;;;17.54;40.25;102289.31;5007082;28;20060;-71
2024/03/07 04:15:26;;;;;;;9.32;7.57;;;;;;;17.83;40.30;102344.00;5013645;28;20060;-72
2024/03/07 04:17:52;;;;;;;12.52;7.65;;;;;;;17.82;40.31;102334.41;5009916;28;20033;-72
2024/03/07 04:20:18;;;;;;;9.98;7.72;;;;;;;17.60;40.40;102303.94;5009625;28;20526;-71
2024/03/07 04:22:43;;;;;;;10.55;7.78;;;;;;;17.79;40.18;102340.69;5011960;28;20052;-72
2024/03/07 04:25:09;;;;;;;11.43;9.02;;;;;;;17.67;40.43;102320.28;5011919;28;20116;-71
2024/03/07 04:27:36;;;;;;;12.75;8.02;;;;;;;17.76;40.37;102328.50;5010767;28;20032;-72
2024/03/07 04:30:03;;;;;;;11.25;8.00;;;;;;;17.75;40.41;102329.47;5012638;28;20038;-72
2024/03/07 04:32:29;;;;;;;10.48;7.97;;;;;;;17.67;40.30;102318.47;5013153;28;20408;-71
2024/03/07 04:34:57;;;;;;;10.52;8.45;;;;;;;17.70;40.27;102325.38;5005225;28;20038;-72
2024/03/07 04:37:22;;;;;;;10.77;8.02;;;;;;;17.67;40.29;102328.19;5019339;28;20495;-71
2024/03/07 04:39:48;;;;;;;11.60;7.90;;;;;;;17.71;39.92;102330.56;5006999;28;20117;-71
2024/03/07 04:42:13;;;;;;;10.90;8.00;;;;;;;17.51;40.13;102300.03;5005069;28;20508;-71
2024/03/07 04:44:39;;;;;;;10.02;8.00;;;;;;;17.73;40.13;102330.47;5011892;28;20045;-71
2024/03/07 04:47:05;;;;;;;9.95;7.55;;;;;;;17.62;40.21;102312.63;5008074;28;20132;-71
2024/03/07 04:49:32;;;;;;;11.07;7.97;;;;;;;17.63;40.24;102313.50;5007615;28;20676;-71
2024/03/07 04:51:59;;;;;;;10.88;7.85;;;;;;;17.49;40.20;102285.25;5012735;28;20080;-71
2024/03/07 04:54:26;;;;;;;11.07;7.90;;;;;;;17.71;40.17;102327.09;5009683;28;20026;-71
2024/03/07 04:56:52;;;;;;;10.63;7.90;;;;;;;17.71;40.00;102329.72;5011919;28;20083;-71
2024/03/07 04:59:18;;;;;;;11.65;8.52;;;;;;;17.57;39.94;102304.97;5010407;28;20160;-71
2024/03/07 05:01:45;;;;;;;10.23;7.57;;;;;;;17.60;40.12;102311.88;5003999;28;20034;-71
2024/03/07 05:04:13;;;;;;;10.88;7.88;;;;;;;17.61;40.07;102315.34;5006813;28;20104;-71
2024/03/07 05:06:39;;;;;;;10.68;8.38;;;;;;;17.69;39.96;102332.44;5009302;28;20041;-72
2024/03/07 05:09:09;;;;;;;11.50;8.00;;;;;;;17.57;39.96;102301.50;5001605;28;20038;-71
2024/03/07 05:11:35;;;;;;;11.63;8.40;;;;;;;17.53;39.82;102303.44;5016689;28;20039;-72
2024/03/07 05:14:01;;;;;;;12.40;8.48;;;;;;;17.68;39.95;102328.09;5014279;28;20425;-71
2024/03/07 05:16:31;;;;;;;11.40;8.27;;;;;;;17.57;40.00;102310.22;5008181;28;20926;-71
2024/03/07 05:18:59;;;;;;;9.45;7.40;;;;;;;17.66;39.97;102321.22;5018068;28;20072;-71
2024/03/07 05:24:03;;;;;;;12.35;8.98;;;;;;;17.52;39.77;102301.75;5006192;28;20045;-71
2024/03/07 05:26:32;;;;;;;11.80;8.23;;;;;;;17.65;40.05;102316.88;5009338;28;20041;-72
2024/03/07 05:28:58;;;;;;;12.52;8.48;;;;;;;17.57;39.92;102310.22;5005185;28;20053;-71
2024/03/07 05:31:24;;;;;;;11.82;8.52;;;;;;;17.61;39.94;102320.63;5010868;28;20367;-71
2024/03/07 05:33:50;;;;;;;11.48;8.43;;;;;;;17.57;39.82;102310.22;5008517;28;20551;-71
2024/03/07 05:36:15;;;;;;;11.52;8.30;;;;;;;17.58;39.65;102317.22;5013983;28;20041;-71
2024/03/07 05:38:43;;;;;;;11.48;7.90;;;;;;;17.55;39.82;102313.91;5010880;28;20037;-72
2024/03/07 05:41:10;;;;;;;11.02;8.63;;;;;;;17.58;39.60;102317.22;5013172;28;20065;-72
2024/03/07 05:43:36;;;;;;;12.00;7.95;;;;;;;17.61;39.73;102328.53;5016923;28;20123;-71
2024/03/07 05:46:02;;;;;;;11.43;8.88;;;;;;;17.54;39.82;102314.84;5005253;28;20496;-72
2024/03/07 05:48:28;;;;;;;10.77;7.82;;;;;;;17.56;39.75;102323.50;5005514;28;20148;-71
2024/03/07 05:50:53;;;;;;;10.30;7.93;;;;;;;17.58;39.70;102333.03;5005337;28;20039;-71
2024/03/07 05:53:19;;;;;;;10.45;7.90;;;;;;;17.53;39.92;102315.75;5003546;28;20498;-71
2024/03/07 05:55:45;;;;;;;9.77;7.75;;;;;;;17.56;40.08;102319.09;5019471;28;20498;-71
2024/03/07 05:58:11;;;;;;;9.43;7.20;;;;;;;17.62;40.39;102323.16;5012851;28;20058;-72
2024/03/07 06:00:37;;;;;;;9.20;7.13;;;;;;;17.59;40.30;102323.34;5006226;28;20052;-71
2024/03/07 06:03:04;;;;;;;9.57;6.82;;;;;;;17.63;40.53;102324.88;5008573;28;20498;-71
2024/03/07 06:05:30;;;;;;;9.20;6.10;;;;;;;17.70;40.63;102333.28;5013438;28;20065;-72
2024/03/07 06:07:56;;;;;;;7.45;5.45;;;;;;;17.68;40.73;102317.56;5004499;28;20068;-71
2024/03/07 06:10:24;;;;;;;7.72;5.53;;;;;;;17.68;40.93;102312.28;5007424;28;20056;-71
2024/03/07 06:12:50;;;;;;;8.50;5.15;;;;;;;17.74;40.81;102319.84;5007055;28;20384;-72
2024/03/07 06:15:15;;;;;;;7.70;5.68;;;;;;;17.68;40.70;102303.53;5017608;28;20049;-71
2024/03/07 06:17:40;;;;;;;7.72;5.47;;;;;;;17.61;40.63;102278.44;4999760;28;20442;-71
2024/03/07 06:20:20;;;;;;;9.57;5.50;;;;;;;17.77;40.59;102305.66;5002325;28;20049;-72
2024/03/07 06:22:45;;;;;;;8.18;5.13;;;;;;;17.86;40.65;102320.09;4999786;28;20056;-72
2024/03/07 06:25:18;;;;;;;7.53;5.65;;;;;;;17.88;40.53;102318.22;5000190;28;20484;-72
2024/03/07 06:27:48;;;;;;;7.82;5.28;;;;;;;17.84;40.37;102309.63;4999901;28;20026;-71
2024/03/07 06:30:16;;;;;;;7.80;5.55;;;;;;;18.00;40.60;102330.72;5005118;28;20036;-71
2024/03/07 06:32:41;;;;;;;7.07;5.50;;;;;;;17.92;40.57;102310.06;5010799;28;20038;-72
2024/03/07 06:35:07;;;;;;;7.43;5.50;;;;;;;18.03;40.38;102327.06;4999895;28;20048;-72
2024/03/07 06:37:32;;;;;;;7.20;5.20;;;;;;;18.03;40.65;102316.53;5012380;28;20068;-72
2024/03/07 06:39:58;;;;;;;9.68;5.88;;;;;;;18.04;40.42;102313.81;5010617;28;20040;-72
2024/03/07 06:42:23;;;;;;;8.02;5.35;;;;;;;17.98;40.32;102306.25;5006116;28;20033;-72
2024/03/07 06:44:48;;;;;;;7.65;4.82;;;;;;;18.08;40.24;102312.66;5004787;28;20037;-72
2024/03/07 06:47:13;;;;;;;7.78;5.10;;;;;;;17.99;40.42;102296.53;5014692;28;20490;-72
2024/03/07 06:49:39;;;;;;;7.10;5.32;;;;;;;18.07;40.36;102310.13;5019019;28;20058;-72
2024/03/07 06:52:05;;;;;;;8.00;5.32;;;;;;;18.07;40.25;102303.06;5005527;28;20029;-72
2024/03/07 06:54:31;;;;;;;7.07;4.95;;;;;;;18.04;40.52;102297.97;5010944;28;20110;-72
2024/03/07 06:56:57;;;;;;;8.18;5.45;;;;;;;18.18;40.13;102325.34;5010912;28;20040;-72
2024/03/07 06:59:22;;;;;;;6.78;4.95;;;;;;;18.10;40.22;102309.94;5017438;28;20030;-72
2024/03/07 07:01:47;;;;;;;6.63;4.95;;;;;;;18.06;39.96;102304.00;5013532;28;20939;-71
2024/03/07 07:04:14;;;;;;;7.03;4.78;;;;;;;18.18;40.24;102315.63;5006082;28;20030;-72
2024/03/07 07:06:42;;;;;;;7.40;5.18;;;;;;;18.20;40.24;102316.41;5025380;28;20056;-72
2024/03/07 07:09:08;;;;;;;8.13;5.55;;;;;;;18.18;40.31;102314.78;5010088;28;20042;-72
2024/03/07 07:11:34;;;;;;;7.03;5.18;;;;;;;18.11;40.26;102306.38;5012972;28;20052;-72
2024/03/07 07:14:02;;;;;;;8.35;5.35;;;;;;;18.08;40.29;102296.00;5003659;28;20033;-72
2024/03/07 07:16:29;;;;;;;7.68;5.43;;;;;;;18.08;40.29;102294.19;5015486;28;20072;-72
2024/03/07 07:18:55;;;;;;;7.72;5.43;;;;;;;18.20;40.29;102305.84;5008942;28;20036;-72
2024/03/07 07:21:21;;;;;;;8.02;5.32;;;;;;;18.09;40.30;102293.28;5010089;28;20042;-72
2024/03/07 07:23:46;;;;;;;7.93;5.35;;;;;;;18.18;40.26;102310.34;5009946;28;20033;-71
2024/03/07 07:26:11;;;;;;;8.27;5.43;;;;;;;18.20;40.13;102313.75;5009178;28;20518;-71
2024/03/07 07:28:37;;;;;;;8.18;5.75;;;;;;;18.13;40.09;102294.81;5007294;28;20040;-71
2024/03/07 07:31:04;;;;;;;8.35;6.20;;;;;;;18.09;39.92;102293.28;5005381;28;20212;-72
2024/03/07 07:33:30;;;;;;;8.02;5.97;;;;;;;18.10;39.87;102289.72;5005610;28;20034;-71
2024/03/07 07:35:56;;;;;;;10.93;6.65;;;;;;;18.14;39.75;102295.66;4998646;28;20022;-70
2024/03/07 07:38:22;;;;;;;9.23;5.93;;;;;;;18.08;39.96;102288.09;5009185;28;20064;-71
2024/03/07 07:40:47;;;;;;;8.48;6.18;;;;;;;18.19;40.04;102308.56;5016433;28;20029;-72
2024/03/07 07:43:13;;;;;;;9.00;6.22;;;;;;;18.13;40.07;102297.44;5008044;28;20467;-71
2024/03/07 07:45:39;;;;;;;9.25;5.95;;;;;;;18.14;40.11;102290.38;5017892;28;20037;-71
2024/03/07 07:48:05;;;;;;;8.85;6.20;;;;;;;18.22;40.36;102303.94;5009593;28;20054;-71
2024/03/07 07:50:32;;;;;;;8.48;5.93;;;;;;;18.11;40.49;102288.75;5000459;28;20083;-72
2024/03/07 07:52:58;;;;;;;8.73;6.32;;;;;;;18.11;40.50;102291.38;5004833;28;20030;-69
2024/03/07 07:55:26;;;;;;;8.85;5.85;;;;;;;18.15;40.96;102285.94;5009187;28;20405;-71
2024/03/07 07:57:54;;;;;;;9.32;6.03;;;;;;;18.23;40.83;102302.16;5010677;28;20045;-71
2024/03/07 08:00:22;;;;;;;8.05;5.78;;;;;;;18.17;40.83;102286.72;5016874;28;20104;-71
2024/03/07 08:03:02;;;;;;;7.45;5.78;;;;;;;18.17;41.13;102289.34;5007014;28;20033;-71
2024/03/07 08:05:29;;;;;;;7.72;5.78;;;;;;;18.19;41.27;102285.66;5013563;28;20083;-71
2024/03/07 08:07:57;;;;;;;10.10;6.18;;;;;;;18.29;41.16;102305.31;5003487;28;20041;-72
2024/03/07 08:10:25;;;;;;;9.55;5.70;;;;;;;18.27;41.33;102299.25;5003858;28;20037;-71
2024/03/07 08:12:51;;;;;;;9.02;5.10;;;;;;;18.19;41.38;102283.03;5013547;28;20456;-71
2024/03/07 08:15:17;;;;;;;7.65;5.82;;;;;;;18.29;41.33;102297.38;5016384;28;20041;-71
2024/03/07 08:17:44;;;;;;;7.95;5.35;;;;;;;18.26;41.48;102289.66;5012487;28;20026;-72
2024/03/07 08:20:11;;;;;;;7.88;5.50;;;;;;;18.21;41.68;102280.28;5014380;28;20488;-72
2024/03/07 08:22:40;;;;;;;8.00;5.35;;;;;;;18.22;41.69;102285.47;5008807;28;20377;-72
2024/03/07 08:25:13;;;;;;;8.00;5.35;;;;;;;18.33;41.82;102300.69;5008533;28;20059;-72
2024/03/07 08:27:41;;;;;;;8.65;5.93;;;;;;;18.25;41.66;102279.19;5016793;28;20641;-71
2024/03/07 08:30:08;;;;;;;7.57;5.50;;;;;;;18.31;41.91;102294.66;5012213;28;20225;-72
2024/03/07 08:32:36;;;;;;;8.73;5.78;;;;;;;18.34;41.86;102291.84;5013569;28;20121;-71
2024/03/07 08:35:06;;;;;;;6.70;5.30;;;;;;;18.36;42.07;102294.34;5007440;28;20041;-70
2024/03/07 08:37:33;;;;;;;7.53;5.30;;;;;;;18.24;42.01;102278.31;5008398;28;20128;-72
2024/03/07 08:39:59;;;;;;;7.13;5.38;;;;;;;18.23;42.08;102275.75;5002885;28;20060;-71
2024/03/07 08:42:24;;;;;;;6.75;4.68;;;;;;;18.24;42.09;102272.19;5020394;28;20572;-71
2024/03/07 08:44:49;;;;;;;8.07;5.35;;;;;;;18.25;42.11;102274.75;5014485;28;20033;-71
2024/03/07 08:47:15;;;;;;;7.75;5.10;;;;;;;18.38;41.93;102289.88;5011710;28;20404;-72
2024/03/07 08:49:40;;;;;;;8.30;5.45;;;;;;;18.23;42.02;102259.94;5011486;28;20148;-72
2024/03/07 08:52:06;;;;;;;7.82;4.97;;;;;;;18.23;42.00;102262.56;5008760;28;21266;-71
2024/03/07 08:54:33;;;;;;;7.68;5.78;;;;;;;18.28;42.05;102268.44;5003695;28;20025;-71
2024/03/07 08:56:59;;;;;;;7.25;4.97;;;;;;;18.26;41.97;102255.34;5020166;28;20040;-71
2024/03/07 08:59:24;;;;;;;7.55;5.45;;;;;;;18.20;42.08;102246.91;5021503;28;20033;-72
2024/03/07 09:01:50;;;;;;;7.10;4.95;;;;;;;18.26;42.20;102255.34;5010031;28;20029;-71
2024/03/07 09:04:17;;;;;;;6.80;4.95;;;;;;;18.40;42.13;102272.97;5013778;28;20052;-70
2024/03/07 09:06:43;;;;;;;7.70;4.65;;;;;;;18.32;42.09;102259.38;5008297;28;20064;-71
2024/03/07 09:09:08;;;;;;;8.23;5.10;;;;;;;18.29;42.04;102249.03;5014992;28;20038;-71
2024/03/07 09:11:36;;;;;;;7.10;4.90;;;;;;;18.29;42.06;102247.25;5019190;28;20412;-71
2024/03/07 09:14:01;;;;;;;8.05;5.43;;;;;;;18.37;42.02;102264.41;5007218;28;20038;-71
2024/03/07 09:16:26;;;;;;;6.97;4.63;;;;;;;18.32;42.14;102251.47;5007105;28;20084;-70
2024/03/07 09:18:52;;;;;;;8.50;4.60;;;;;;;18.29;42.29;102241.09;5017432;28;20034;-70
2024/03/07 09:21:17;;;;;;;7.38;5.43;;;;;;;18.24;41.95;102233.47;5006927;28;20267;-75
2024/03/07 09:23:42;;;;;;;7.97;5.72;;;;;;;18.31;41.80;102244.53;5008306;28;20518;-79
2024/03/07 09:26:08;;;;;;;6.95;5.20;;;;;;;18.45;41.73;102270.94;5010260;28;20041;-74
2024/03/07 09:28:33;;;;;;;8.60;5.47;;;;;;;18.35;41.76;102247.81;5008586;28;20472;-75
2024/03/07 09:30:58;;;;;;;7.40;5.15;;;;;;;18.44;41.77;102266.59;5012660;28;20053;-75
2024/03/07 09:33:24;;;;;;;8.32;5.35;;;;;;;18.31;41.69;102237.44;5008560;28;20040;-76
2024/03/07 09:35:49;;;;;;;6.63;4.63;;;;;;;18.39;41.78;102250.19;5011385;28;20045;-73
2024/03/07 09:38:15;;;;;;;7.10;5.22;;;;;;;18.49;42.02;102267.16;5013605;28;20034;-73
2024/03/07 09:40:40;;;;;;;7.97;5.18;;;;;;;18.45;41.67;102251.59;5010967;28;20227;-73
2024/03/07 09:43:09;;;;;;;7.75;5.25;;;;;;;18.46;41.75;102251.50;5014245;28;20080;-76
2024/03/07 09:45:35;;;;;;;7.78;5.28;;;;;;;18.43;41.56;102242.91;5010238;28;20034;-75
2024/03/07 09:48:02;;;;;;;7.60;5.55;;;;;;;18.42;41.40;102244.72;5011048;28;20451;-74
2024/03/07 09:50:30;;;;;;;7.68;5.57;;;;;;;18.41;41.63;102242.16;5009732;28;20030;-69
2024/03/07 09:52:56;;;;;;;7.90;4.90;;;;;;;18.41;41.55;102231.63;5009659;28;20029;-71
2024/03/07 09:55:23;;;;;;;7.95;5.05;;;;;;;18.54;41.28;102252.84;5009458;28;20283;-73
2024/03/07 09:57:50;;;;;;;8.15;5.30;;;;;;;18.55;41.40;102246.59;5008552;28;20148;-73
2024/03/07 10:00:22;;;;;;;7.18;5.32;;;;;;;18.50;41.39;102249.53;5009473;28;20033;-74
2024/03/07 10:02:52;;;;;;;7.97;5.45;;;;;;;18.54;41.41;102258.13;5011318;28;20037;-76
2024/03/07 10:05:19;;;;;;;7.85;5.00;;;;;;;18.36;41.24;102231.00;5006326;28;20030;-73
2024/03/07 10:07:45;;;;;;;8.35;4.38;;;;;;;18.51;41.44;102250.38;5007164;28;20031;-72
2024/03/07 10:10:11;;;;;;;7.38;4.75;;;;;;;18.40;41.41;102230.75;5011302;28;20072;-74
2024/03/07 10:12:38;;;;;;;6.57;5.25;;;;;;;18.49;41.56;102240.75;5011410;28;20400;-75
2024/03/07 10:15:10;;;;;;;7.70;4.80;;;;;;;18.44;41.43;102226.16;5008341;28;20030;-75
2024/03/07 10:17:35;;;;;;;6.28;4.50;;;;;;;18.54;41.77;102237.84;5008689;28;20136;-76
2024/03/07 10:20:01;;;;;;;8.45;5.20;;;;;;;18.44;41.59;102221.72;5011967;28;20116;-75
2024/03/07 10:22:26;;;;;;;8.40;5.30;;;;;;;18.25;41.61;102197.38;5009854;28;20029;-74
2024/03/07 10:24:53;;;;;;;8.75;5.55;;;;;;;18.48;41.36;102222.38;5008514;28;20487;-76
2024/03/07 10:27:23;;;;;;;8.00;5.18;;;;;;;18.52;41.39;102234.44;5010328;28;20041;-75
2024/03/07 10:29:51;;;;;;;7.05;5.40;;;;;;;18.45;41.14;102228.69;5008433;28;20167;-77
2024/03/07 10:32:20;;;;;;;7.38;5.07;;;;;;;18.41;41.42;102207.84;5008267;28;20029;-73
2024/03/07 10:34:48;;;;;;;7.60;4.93;;;;;;;18.40;41.41;102209.63;5010470;28;20425;-74
2024/03/07 10:37:16;;;;;;;8.27;5.25;;;;;;;18.53;41.30;102222.91;5008453;28;20826;-76
2024/03/07 10:39:44;;;;;;;7.95;5.10;;;;;;;18.41;41.50;102200.78;5008384;28;20570;-75
2024/03/07 10:42:15;;;;;;;6.78;5.22;;;;;;;18.53;41.41;102230.84;5013488;28;20036;-69
2024/03/07 10:44:44;;;;;;;6.68;4.63;;;;;;;18.53;41.47;102230.84;5018859;28;20040;-72
2024/03/07 10:47:15;;;;;;;8.00;5.15;;;;;;;18.42;41.56;102212.19;5009903;28;20045;-75
2024/03/07 10:49:52;;;;;;;6.90;5.00;;;;;;;18.48;41.51;102225.00;5008949;28;20050;-76
2024/03/07 10:52:39;;;;;;;6.85;4.63;;;;;;;18.42;41.50;102213.03;5011493;28;20056;-75
2024/03/07 10:55:23;;;;;;;7.22;5.00;;;;;;;18.52;41.58;102220.38;5008752;28;20517;-76
2024/03/07 10:58:02;;;;;;;7.78;5.10;;;;;;;18.42;41.48;102199.84;5009849;28;20581;-76
2024/03/07 11:00:35;;;;;;;8.18;5.22;;;;;;;18.41;41.41;102198.13;5010763;28;20029;-77
2024/03/07 11:03:02;;;;;;;7.55;5.05;;;;;;;18.32;41.53;102185.50;5010555;28;20033;-76
2024/03/07 11:05:31;;;;;;;8.32;5.25;;;;;;;18.40;41.27;102193.78;5003976;28;20080;-71
2024/03/07 11:08:07;;;;;;;7.32;4.97;;;;;;;18.53;41.37;102211.53;5015135;28;20923;-70
2024/03/07 11:10:34;;;;;;;8.07;4.90;;;;;;;18.41;41.04;102199.94;5011389;28;20033;-76
2024/03/07 11:13:00;;;;;;;7.85;5.03;;;;;;;18.41;41.29;102200.78;5009569;28;20041;-76
2024/03/07 11:15:27;;;;;;;6.28;4.80;;;;;;;18.46;41.46;102195.22;5009503;28;20026;-76
2024/03/07 11:17:54;;;;;;;7.47;5.20;;;;;;;18.51;41.41;102211.63;5012442;28;20255;-72
2024/03/07 11:20:27;;;;;;;7.60;5.20;;;;;;;18.52;41.32;102200.13;5005487;28;20037;-75
2024/03/07 11:22:55;;;;;;;7.60;5.43;;;;;;;18.40;41.44;102179.75;5004128;28;20466;-72